createdAt,value
2022-11-29T00:01:24.863Z,102232.41
2022-11-29T00:03:52.023Z,102240.19
2022-11-29T00:06:21.045Z,102241.69
2022-11-29T00:08:48.053Z,102229.78
2022-11-29T00:11:35.825Z,102233.31
2022-11-29T00:14:02.826Z,102232.41
2022-11-29T00:16:29.712Z,102246.09
2022-11-29T00:18:56.604Z,102243.50
2022-11-29T00:21:23.384Z,102241.81
2022-11-29T00:23:50.162Z,102249.59
2022-11-29T00:26:17.000Z,102252.19
2022-11-29T00:28:43.782Z,102245.47
2022-11-29T00:31:17.633Z,102244.59
2022-11-29T00:33:44.665Z,102250.50
2022-11-29T00:36:11.728Z,102252.19
2022-11-29T00:38:38.580Z,102253.94
2022-11-29T00:41:05.783Z,102245.44
2022-11-29T00:43:32.606Z,102210.00
2022-11-29T00:45:59.447Z,102253.94
2022-11-29T00:48:26.263Z,102254.84
2022-11-29T00:50:53.083Z,102254.03
2022-11-29T00:53:20.106Z,102248.03
2022-11-29T00:55:50.452Z,102232.72
2022-11-29T00:58:17.395Z,102240.19
2022-11-29T01:00:44.242Z,102234.25
2022-11-29T01:03:11.072Z,102219.97
2022-11-29T01:05:37.904Z,102224.19
2022-11-29T01:08:04.925Z,102236.81
2022-11-29T01:10:31.705Z,102229.09
2022-11-29T01:12:58.504Z,102226.69
2022-11-29T01:15:25.387Z,102221.59
2022-11-29T01:17:53.523Z,102233.44
2022-11-29T01:20:20.451Z,102220.69
2022-11-29T01:22:47.259Z,102232.69
2022-11-29T01:25:14.123Z,102227.41
2022-11-29T01:27:41.028Z,102215.63
2022-11-29T01:30:08.664Z,102232.72
2022-11-29T01:32:36.069Z,102231.94
2022-11-29T01:35:03.452Z,102231.81
2022-11-29T01:37:30.247Z,102227.59
2022-11-29T01:39:57.043Z,102223.50
2022-11-29T01:42:23.900Z,102216.66
2022-11-29T01:44:50.612Z,102235.38
2022-11-29T01:47:18.166Z,102234.53
2022-11-29T01:49:46.004Z,102241.59
2022-11-29T01:52:32.373Z,102237.34
2022-11-29T01:55:01.065Z,102226.09
2022-11-29T01:57:28.084Z,102228.69
2022-11-29T01:59:58.350Z,102234.69
2022-11-29T02:02:42.551Z,102234.66
2022-11-29T02:05:09.625Z,102239.00
2022-11-29T02:07:36.565Z,102238.91
2022-11-29T02:10:03.656Z,102237.25
2022-11-29T02:12:35.320Z,102232.91
2022-11-29T02:15:11.186Z,102242.41
2022-11-29T02:18:02.767Z,102234.66
2022-11-29T02:20:51.202Z,102240.66
2022-11-29T02:23:30.189Z,102240.72
2022-11-29T02:25:59.481Z,102237.34
2022-11-29T02:28:44.658Z,102242.53
2022-11-29T02:31:43.702Z,102243.44
2022-11-29T02:34:39.989Z,102232.59
2022-11-29T02:37:48.727Z,102247.72
2022-11-29T02:40:33.992Z,102247.75
2022-11-29T02:43:06.559Z,102258.97
2022-11-29T02:45:55.077Z,102245.16
2022-11-29T02:48:59.301Z,102251.22
2022-11-29T02:51:48.503Z,102252.16
2022-11-29T02:54:39.345Z,102252.94
2022-11-29T02:57:14.824Z,102260.75
2022-11-29T02:59:47.457Z,102261.69
2022-11-29T03:02:21.711Z,102253.13
2022-11-29T03:05:13.968Z,102257.34
2022-11-29T03:07:56.095Z,102260.03
2022-11-29T03:10:49.749Z,102265.16
2022-11-29T03:13:58.773Z,102254.78
2022-11-29T03:16:56.430Z,102260.81
2022-11-29T03:19:47.044Z,102258.28
2022-11-29T03:22:51.163Z,102258.28
2022-11-29T03:25:21.174Z,102267.81
2022-11-29T03:28:06.611Z,102252.59
2022-11-29T03:30:34.756Z,102259.41
2022-11-29T03:33:10.062Z,102265.41
2022-11-29T03:36:09.624Z,102270.50
2022-11-29T03:38:41.606Z,102263.03
2022-11-29T03:41:13.383Z,102281.81
2022-11-29T03:43:57.171Z,102270.00
2022-11-29T03:47:02.474Z,102278.50
2022-11-29T03:49:31.524Z,102276.00
2022-11-29T03:52:18.971Z,102281.16
2022-11-29T03:55:23.049Z,102287.22
2022-11-29T03:58:02.215Z,102287.28
2022-11-29T04:00:43.249Z,102294.19
2022-11-29T04:03:41.042Z,102295.09
2022-11-29T04:06:14.664Z,102288.41
2022-11-29T04:09:08.769Z,102296.97
2022-11-29T04:11:35.462Z,102302.16
2022-11-29T04:14:14.372Z,102306.47
2022-11-29T04:17:02.804Z,102304.81
2022-11-29T04:19:46.659Z,102304.00
2022-11-29T04:22:50.842Z,102301.50
2022-11-29T04:25:39.228Z,102311.06
2022-11-29T04:28:09.184Z,102317.06
2022-11-29T04:30:43.521Z,102295.06
2022-11-29T04:33:17.423Z,102281.72
2022-11-29T04:36:13.012Z,102318.09
2022-11-29T04:39:17.155Z,102314.66
2022-11-29T04:41:52.885Z,102322.50
2022-11-29T04:44:27.685Z,102304.75
2022-11-29T04:47:33.089Z,102326.78
2022-11-29T04:50:20.955Z,102328.53
2022-11-29T04:53:09.484Z,102329.38
2022-11-29T04:55:57.689Z,102326.84
2022-11-29T04:58:33.140Z,102321.69
2022-11-29T05:01:18.036Z,102335.47
2022-11-29T05:04:03.383Z,102345.88
2022-11-29T05:06:51.887Z,102337.38
2022-11-29T05:09:56.647Z,102341.56
2022-11-29T05:13:02.445Z,102343.31
2022-11-29T05:15:53.934Z,102341.56
2022-11-29T05:18:42.806Z,102337.31
2022-11-29T05:21:11.426Z,102323.16
2022-11-29T05:24:15.460Z,102347.66
2022-11-29T05:26:49.529Z,102345.97
2022-11-29T05:29:26.410Z,102356.31
2022-11-29T05:32:19.651Z,102346.88
2022-11-29T05:35:08.941Z,102349.66
2022-11-29T05:38:15.102Z,102362.44
2022-11-29T05:41:03.727Z,102360.69
2022-11-29T05:44:02.188Z,102363.28
2022-11-29T05:47:01.102Z,102364.19
2022-11-29T05:49:41.463Z,102365.94
2022-11-29T05:52:32.127Z,102364.19
2022-11-29T05:55:19.929Z,102366.78
2022-11-29T05:58:43.579Z,102369.44
2022-11-29T06:01:21.424Z,102372.78
2022-11-29T06:04:13.223Z,102371.03
2022-11-29T06:06:52.502Z,102373.72
2022-11-29T06:09:28.694Z,102380.66
2022-11-29T06:11:57.763Z,102378.97
2022-11-29T06:14:36.188Z,102379.91
2022-11-29T06:17:34.335Z,102383.28
2022-11-29T06:20:23.532Z,102374.91
2022-11-29T06:22:50.566Z,102382.50
2022-11-29T06:25:31.726Z,102380.16
2022-11-29T06:27:59.166Z,102386.88
2022-11-29T06:30:27.885Z,102387.75
2022-11-29T06:33:01.306Z,102391.19
2022-11-29T06:35:53.067Z,102400.69
2022-11-29T06:38:27.865Z,102390.44
2022-11-29T06:41:01.386Z,102390.34
2022-11-29T06:43:29.063Z,102400.75
2022-11-29T06:46:14.511Z,102400.69
2022-11-29T06:48:49.848Z,102403.28
2022-11-29T06:51:18.615Z,102394.00
2022-11-29T06:54:04.635Z,102401.59
2022-11-29T06:56:43.517Z,102405.00
2022-11-29T06:59:41.358Z,102400.69
2022-11-29T07:02:45.278Z,102405.88
2022-11-29T07:05:26.007Z,102405.88
2022-11-29T07:07:54.605Z,102405.84
2022-11-29T07:10:21.943Z,102411.00
2022-11-29T07:12:49.378Z,102409.28
2022-11-29T07:15:18.410Z,102415.28
2022-11-29T07:18:09.695Z,102420.34
2022-11-29T07:20:55.196Z,102409.16
2022-11-29T07:23:45.776Z,102422.94
2022-11-29T07:26:27.158Z,102421.28
2022-11-29T07:29:17.804Z,102418.59
2022-11-29T07:31:47.549Z,102424.63
2022-11-29T07:34:25.572Z,102427.13
2022-11-29T07:36:58.618Z,102417.84
2022-11-29T07:39:40.937Z,102424.53
2022-11-29T07:42:20.196Z,102427.91
2022-11-29T07:44:53.176Z,102420.25
2022-11-29T07:47:19.934Z,102431.28
2022-11-29T07:49:46.742Z,102412.50
2022-11-29T07:52:13.986Z,102427.69
2022-11-29T07:54:40.851Z,102431.16
2022-11-29T07:57:07.649Z,102419.19
2022-11-29T07:59:34.426Z,102422.41
2022-11-29T08:02:01.270Z,102426.72
2022-11-29T08:04:28.214Z,102420.56
2022-11-29T08:06:54.976Z,102425.72
2022-11-29T08:09:21.707Z,102422.22
2022-11-29T08:11:48.905Z,102416.97
2022-11-29T08:14:15.687Z,102431.47
2022-11-29T08:16:42.459Z,102417.88
2022-11-29T08:19:09.273Z,102415.19
2022-11-29T08:21:36.021Z,102408.34
2022-11-29T08:24:02.965Z,102424.44
2022-11-29T08:26:31.775Z,102431.25
2022-11-29T08:28:58.844Z,102426.94
2022-11-29T08:31:25.677Z,102426.03
2022-11-29T08:33:52.510Z,102421.66
2022-11-29T08:36:19.978Z,102421.66
2022-11-29T08:38:47.079Z,102426.66
2022-11-29T08:41:15.132Z,102417.38
2022-11-29T08:43:41.907Z,102417.09
2022-11-29T08:46:11.462Z,102423.91
2022-11-29T08:48:42.099Z,102428.97
2022-11-29T08:51:09.020Z,102417.75
2022-11-29T08:53:46.460Z,102410.06
2022-11-29T08:59:05.677Z,102417.63
2022-11-29T09:01:32.630Z,102418.38
2022-11-29T09:03:59.555Z,102416.66
2022-11-29T09:06:27.596Z,102403.66
2022-11-29T09:08:56.380Z,102412.19
2022-11-29T09:11:24.506Z,102415.53
2022-11-29T09:13:53.282Z,102403.59
2022-11-29T09:16:21.716Z,102415.31
2022-11-29T09:18:56.067Z,102415.25
2022-11-29T09:21:24.664Z,102412.63
2022-11-29T09:23:58.101Z,102410.78
2022-11-29T09:26:29.463Z,102418.38
2022-11-29T09:28:58.002Z,102421.78
2022-11-29T09:31:24.912Z,102417.31
2022-11-29T09:33:51.986Z,102407.06
2022-11-29T09:36:23.718Z,102411.94
2022-11-29T09:38:53.548Z,102404.25
2022-11-29T09:41:58.079Z,102409.19
2022-11-29T09:44:45.696Z,102396.38
2022-11-29T09:47:36.887Z,102407.31
2022-11-29T09:50:36.747Z,102412.38
2022-11-29T09:53:12.591Z,102402.03
2022-11-29T09:55:57.726Z,102409.78
2022-11-29T09:58:29.328Z,102405.53
2022-11-29T10:01:08.105Z,102413.06
2022-11-29T10:03:39.420Z,102413.84
2022-11-29T10:06:27.923Z,102408.66
2022-11-29T10:09:08.281Z,102397.56
2022-11-29T10:12:10.605Z,102401.75
2022-11-29T10:15:17.976Z,102410.00
2022-11-29T10:17:45.481Z,102414.22
2022-11-29T10:20:20.047Z,102399.09
2022-11-29T10:23:05.661Z,102404.06
2022-11-29T10:25:36.340Z,102410.63
2022-11-29T10:28:04.438Z,102409.03
2022-11-29T10:30:33.122Z,102412.38
2022-11-29T10:33:00.414Z,102414.84
2022-11-29T10:35:27.438Z,102413.16
2022-11-29T10:38:22.740Z,102406.38
2022-11-29T10:40:46.175Z,102409.69
2022-11-29T10:43:13.031Z,102408.09
2022-11-29T10:45:50.994Z,102423.34
2022-11-29T10:48:36.827Z,102419.13
2022-11-29T10:51:03.964Z,102426.78
2022-11-29T10:53:37.164Z,102408.81
2022-11-29T10:56:31.231Z,102416.41
2022-11-29T10:59:09.445Z,102414.72
2022-11-29T11:01:38.507Z,102423.34
2022-11-29T11:04:07.489Z,102415.59
2022-11-29T11:06:56.264Z,102419.91
2022-11-29T11:09:32.740Z,102423.34
2022-11-29T11:12:01.831Z,102413.16
2022-11-29T11:14:30.963Z,102426.78
2022-11-29T11:17:15.297Z,102426.75
2022-11-29T11:19:42.177Z,102419.81
2022-11-29T11:22:18.794Z,102426.66
2022-11-29T11:24:45.814Z,102423.22
2022-11-29T11:27:12.772Z,102414.63
2022-11-29T11:29:43.919Z,102420.56
2022-11-29T11:32:18.207Z,102423.16
2022-11-29T11:34:53.020Z,102415.56
2022-11-29T11:37:23.016Z,102411.28
2022-11-29T11:39:51.662Z,102408.75
2022-11-29T11:42:39.023Z,102413.88
2022-11-29T11:45:35.469Z,102427.50
2022-11-29T11:48:04.941Z,102419.06
2022-11-29T11:50:34.383Z,102411.41
2022-11-29T11:53:23.120Z,102423.28
2022-11-29T11:55:58.889Z,102422.50
2022-11-29T11:58:45.879Z,102426.78
2022-11-29T12:01:12.637Z,102422.50
2022-11-29T12:04:03.743Z,102432.03
2022-11-29T12:06:52.731Z,102435.59
2022-11-29T12:09:32.858Z,102434.78
2022-11-29T12:12:21.271Z,102440.03
2022-11-29T12:14:56.804Z,102439.25
2022-11-29T12:17:38.687Z,102435.88
2022-11-29T12:20:24.323Z,102437.66
2022-11-29T12:22:54.146Z,102439.50
2022-11-29T12:25:30.166Z,102444.59
2022-11-29T12:27:57.029Z,102430.13
2022-11-29T12:30:23.843Z,102429.16
2022-11-29T12:32:55.160Z,102436.09
2022-11-29T12:35:51.286Z,102443.94
2022-11-29T12:38:46.124Z,102439.81
2022-11-29T12:41:18.809Z,102444.06
2022-11-29T12:44:07.871Z,102447.59
2022-11-29T12:46:34.834Z,102446.06
2022-11-29T12:49:16.800Z,102457.28
2022-11-29T12:52:05.599Z,102455.66
2022-11-29T12:54:32.345Z,102456.53
2022-11-29T12:57:11.369Z,102455.69
2022-11-29T12:59:59.188Z,102458.38
2022-11-29T13:02:31.371Z,102472.22
2022-11-29T13:05:14.219Z,102462.84
2022-11-29T13:07:53.361Z,102469.75
2022-11-29T13:10:41.629Z,102465.44
2022-11-29T13:13:39.179Z,102471.53
2022-11-29T13:16:29.269Z,102466.56
2022-11-29T13:19:05.961Z,102460.59
2022-11-29T13:21:55.942Z,102468.28
2022-11-29T13:25:00.003Z,102474.22
2022-11-29T13:27:46.170Z,102476.81
2022-11-29T13:30:14.422Z,102473.38
2022-11-29T13:32:47.866Z,102480.38
2022-11-29T13:35:54.888Z,102476.16
2022-11-29T13:38:41.167Z,102464.34
2022-11-29T13:41:31.405Z,102466.91
2022-11-29T13:44:18.786Z,102473.56
2022-11-29T13:47:07.541Z,102471.88
2022-11-29T13:49:57.400Z,102479.75
2022-11-29T13:52:45.884Z,102477.19
2022-11-29T13:55:12.673Z,102477.28
2022-11-29T14:00:45.224Z,102488.56
2022-11-29T14:03:26.165Z,102482.59
2022-11-29T14:06:09.980Z,102490.44
2022-11-29T14:09:02.499Z,102487.00
2022-11-29T14:11:32.253Z,102483.84
2022-11-29T14:14:28.947Z,102484.63
2022-11-29T14:17:06.201Z,102494.13
2022-11-29T14:19:36.941Z,102484.94
2022-11-29T14:22:15.799Z,102498.50
2022-11-29T14:24:42.952Z,102490.22
2022-11-29T14:27:12.725Z,102495.25
2022-11-29T14:29:51.096Z,102497.91
2022-11-29T14:32:45.732Z,102500.53
2022-11-29T14:35:13.070Z,102495.34
2022-11-29T14:38:19.426Z,102490.25
2022-11-29T14:41:16.028Z,102502.44
2022-11-29T14:43:42.864Z,102496.50
2022-11-29T14:46:15.794Z,102499.94
2022-11-29T14:48:48.746Z,102494.97
2022-11-29T14:51:19.628Z,102482.22
2022-11-29T14:53:47.434Z,102477.31
2022-11-29T14:56:34.866Z,102502.66
2022-11-29T14:59:38.972Z,102503.56
2022-11-29T15:02:27.549Z,102494.28
2022-11-29T15:04:56.105Z,102506.25
2022-11-29T15:07:29.862Z,102501.06
2022-11-29T15:09:59.886Z,102509.75
2022-11-29T15:12:29.502Z,102509.75
2022-11-29T15:15:15.045Z,102515.00
2022-11-29T15:17:44.559Z,102515.88
2022-11-29T15:20:51.551Z,102511.66
2022-11-29T15:23:18.916Z,102515.97
2022-11-29T15:25:51.009Z,102505.75
2022-11-29T15:28:37.982Z,102515.13
2022-11-29T15:31:09.336Z,102513.44
2022-11-29T15:33:43.066Z,102512.69
2022-11-29T15:36:16.561Z,102502.53
2022-11-29T15:38:53.669Z,102513.59
2022-11-29T15:41:38.362Z,102503.47
2022-11-29T15:44:06.461Z,102515.31
2022-11-29T15:46:34.837Z,102510.50
2022-11-29T15:49:23.993Z,102523.13
2022-11-29T15:52:02.274Z,102520.63
2022-11-29T15:54:30.415Z,102525.78
2022-11-29T15:57:00.748Z,102503.72
2022-11-29T15:59:40.135Z,102509.75
2022-11-29T16:02:40.113Z,102519.00
2022-11-29T16:05:22.917Z,102520.81
2022-11-29T16:07:51.934Z,102508.06
2022-11-29T16:10:20.929Z,102525.06
2022-11-29T16:13:01.455Z,102535.53
2022-11-29T16:15:29.539Z,102530.34
2022-11-29T16:17:56.410Z,102521.00
2022-11-29T16:20:24.528Z,102529.56
2022-11-29T16:23:11.414Z,102530.41
2022-11-29T16:25:54.048Z,102532.16
2022-11-29T16:28:20.895Z,102522.06
2022-11-29T16:30:47.678Z,102519.47
2022-11-29T16:33:21.411Z,102530.59
2022-11-29T16:35:48.368Z,102535.59
2022-11-29T16:38:22.262Z,102544.34
2022-11-29T16:41:08.317Z,102546.88
2022-11-29T16:43:54.158Z,102545.97
2022-11-29T16:46:20.980Z,102550.34
2022-11-29T16:48:51.154Z,102552.13
2022-11-29T16:51:35.924Z,102549.69
2022-11-29T16:54:22.408Z,102550.38
2022-11-29T16:56:50.484Z,102551.38
2022-11-29T16:59:26.703Z,102559.03
2022-11-29T17:01:55.127Z,102559.03
2022-11-29T17:04:24.473Z,102560.78
2022-11-29T17:06:55.207Z,102559.84
2022-11-29T17:09:24.566Z,102550.63
2022-11-29T17:11:51.543Z,102566.81
2022-11-29T17:14:18.380Z,102553.31
2022-11-29T17:16:47.779Z,102565.22
2022-11-29T17:19:14.760Z,102570.28
2022-11-29T17:21:41.552Z,102574.66
2022-11-29T17:24:11.887Z,102579.81
2022-11-29T17:26:38.728Z,102571.28
2022-11-29T17:29:05.508Z,102568.03
2022-11-29T17:31:32.604Z,102580.78
2022-11-29T17:34:00.811Z,102589.34
2022-11-29T17:36:27.729Z,102584.41
2022-11-29T17:38:54.520Z,102582.72
2022-11-29T17:41:23.234Z,102583.41
2022-11-29T17:43:50.743Z,102592.00
2022-11-29T17:46:26.074Z,102583.56
2022-11-29T17:48:53.183Z,102589.50
2022-11-29T17:51:50.767Z,102586.94
2022-11-29T17:54:09.246Z,102590.66
2022-11-29T17:56:36.044Z,102606.75
2022-11-29T17:59:03.822Z,102599.94
2022-11-29T18:01:32.383Z,102604.19
2022-11-29T18:04:00.645Z,102599.09
2022-11-29T18:06:34.192Z,102608.53
2022-11-29T18:09:01.593Z,102602.53
2022-11-29T18:11:44.946Z,102608.66
2022-11-29T18:14:15.693Z,102602.53
2022-11-29T18:16:42.837Z,102603.41
2022-11-29T18:19:12.254Z,102603.44
2022-11-29T18:21:39.240Z,102586.56
2022-11-29T18:24:06.605Z,102612.03
2022-11-29T18:26:34.188Z,102607.78
2022-11-29T18:29:01.195Z,102606.13
2022-11-29T18:31:33.154Z,102600.28
2022-11-29T18:34:01.318Z,102605.25
2022-11-29T18:36:32.642Z,102597.69
2022-11-29T18:39:01.357Z,102606.16
2022-11-29T18:41:29.262Z,102607.94
2022-11-29T18:43:58.215Z,102599.41
2022-11-29T18:46:25.686Z,102613.09
2022-11-29T18:48:53.129Z,102613.19
2022-11-29T18:51:20.244Z,102610.53
2022-11-29T18:53:47.177Z,102578.34
2022-11-29T18:56:19.181Z,102607.16
2022-11-29T18:58:47.422Z,102617.50
2022-11-29T19:01:15.895Z,102615.00
2022-11-29T19:03:44.965Z,102622.69
2022-11-29T19:06:17.056Z,102616.00
2022-11-29T19:08:44.083Z,102627.94
2022-11-29T19:11:15.173Z,102618.50
2022-11-29T19:13:42.068Z,102626.25
2022-11-29T19:16:13.043Z,102618.56
2022-11-29T19:18:40.233Z,102630.66
2022-11-29T19:21:07.764Z,102615.34
2022-11-29T19:23:34.728Z,102617.09
2022-11-29T19:26:03.321Z,102629.84
2022-11-29T19:28:30.610Z,102629.91
2022-11-29T19:30:57.620Z,102632.59
2022-11-29T19:33:24.718Z,102630.91
2022-11-29T19:35:51.661Z,102620.78
2022-11-29T19:38:18.592Z,102631.75
2022-11-29T19:40:45.554Z,102630.06
2022-11-29T19:43:12.581Z,102635.16
2022-11-29T19:45:40.512Z,102633.50
2022-11-29T19:48:07.508Z,102617.38
2022-11-29T19:50:34.364Z,102639.50
2022-11-29T19:53:01.267Z,102633.50
2022-11-29T19:55:28.175Z,102624.22
2022-11-29T19:57:56.312Z,102624.13
2022-11-29T20:00:23.245Z,102619.97
2022-11-29T20:02:50.312Z,102639.59
2022-11-29T20:05:17.362Z,102635.34
2022-11-29T20:07:44.256Z,102625.97
2022-11-29T20:10:11.693Z,102634.50
2022-11-29T20:12:38.619Z,102643.09
2022-11-29T20:15:06.228Z,102641.41
2022-11-29T20:17:33.130Z,102640.56
2022-11-29T20:20:00.057Z,102634.59
2022-11-29T20:22:27.016Z,102641.41
2022-11-29T20:24:55.021Z,102635.47
2022-11-29T20:27:22.329Z,102632.94
2022-11-29T20:29:49.299Z,102638.88
2022-11-29T20:32:17.023Z,102625.31
2022-11-29T20:34:44.239Z,102632.06
2022-11-29T20:37:23.224Z,102637.16
2022-11-29T20:40:11.101Z,102632.09
2022-11-29T20:43:16.682Z,102641.50
2022-11-29T20:45:43.900Z,102635.66
2022-11-29T20:48:21.826Z,102643.22
2022-11-29T20:51:00.441Z,102645.91
2022-11-29T20:53:35.279Z,102643.28
2022-11-29T20:56:02.738Z,102640.81
2022-11-29T20:58:29.636Z,102649.31
2022-11-29T21:00:56.937Z,102648.47
2022-11-29T21:03:24.238Z,102639.03
2022-11-29T21:05:51.709Z,102639.88
2022-11-29T21:08:19.105Z,102640.72
2022-11-29T21:10:45.991Z,102645.13
2022-11-29T21:13:13.450Z,102646.84
2022-11-29T21:15:40.759Z,102647.72
2022-11-29T21:18:08.104Z,102647.81
2022-11-29T21:20:35.170Z,102655.31
2022-11-29T21:23:06.960Z,102664.84
2022-11-29T21:25:57.537Z,102668.25
2022-11-29T21:28:28.234Z,102664.00
2022-11-29T21:30:55.351Z,102655.31
2022-11-29T21:33:22.488Z,102658.75
2022-11-29T21:35:52.615Z,102648.53
2022-11-29T21:38:19.775Z,102665.72
2022-11-29T21:40:46.732Z,102663.13
2022-11-29T21:43:13.645Z,102667.34
2022-11-29T21:45:40.570Z,102661.38
2022-11-29T21:48:30.291Z,102662.22
2022-11-29T21:50:57.173Z,102665.66
2022-11-29T21:53:24.172Z,102650.38
2022-11-29T21:55:57.045Z,102658.06
2022-11-29T21:58:24.628Z,102676.00
2022-11-29T22:00:51.917Z,102668.38
2022-11-29T22:03:18.871Z,102668.31
2022-11-29T22:05:46.956Z,102665.78
2022-11-29T22:08:13.969Z,102682.84
2022-11-29T22:10:40.896Z,102661.53
2022-11-29T22:13:07.849Z,102679.47
2022-11-29T22:15:34.762Z,102679.44
2022-11-29T22:18:01.695Z,102677.69
2022-11-29T22:20:28.593Z,102667.63
2022-11-29T22:22:58.695Z,102659.00
2022-11-29T22:25:25.877Z,102679.44
2022-11-29T22:27:52.745Z,102674.25
2022-11-29T22:30:19.710Z,102672.66
2022-11-29T22:32:46.637Z,102681.16
2022-11-29T22:35:13.569Z,102664.06
2022-11-29T22:37:40.454Z,102675.16
2022-11-29T22:40:07.774Z,102670.19
2022-11-29T22:42:34.720Z,102660.78
2022-11-29T22:45:03.926Z,102669.25
2022-11-29T22:47:30.878Z,102691.56
2022-11-29T22:49:57.809Z,102684.72
2022-11-29T22:52:24.746Z,102688.16
2022-11-29T22:54:51.644Z,102691.59
2022-11-29T22:57:18.604Z,102695.84
2022-11-29T22:59:45.452Z,102691.59
2022-11-29T23:02:12.400Z,102694.22
2022-11-29T23:04:39.307Z,102697.59
2022-11-29T23:07:06.240Z,102695.00
2022-11-29T23:09:33.124Z,102695.84
2022-11-29T23:11:59.990Z,102700.19
2022-11-29T23:14:26.851Z,102692.63
2022-11-29T23:16:53.791Z,102692.47
2022-11-29T23:19:20.769Z,102703.59
2022-11-29T23:21:48.034Z,102700.16
2022-11-29T23:24:15.398Z,102687.34
2022-11-29T23:26:44.539Z,102691.56
2022-11-29T23:29:13.588Z,102685.63
2022-11-29T23:31:40.563Z,102682.16
2022-11-29T23:34:07.790Z,102690.66
2022-11-29T23:36:34.735Z,102683.03
2022-11-29T23:39:01.591Z,102688.09
2022-11-29T23:41:28.595Z,102688.97
2022-11-29T23:43:55.491Z,102676.22
2022-11-29T23:46:23.422Z,102672.78
2022-11-29T23:48:50.470Z,102686.41
2022-11-29T23:51:17.568Z,102686.41
2022-11-29T23:53:44.528Z,102691.56
2022-11-29T23:56:15.639Z,102687.25
2022-11-29T23:58:42.912Z,102685.50
